Time;durP1;ratioP1;P1;durP2;ratioP2;P2;SDS_P1;SDS_P2;PMS_P1;PMS_P2;Temp;Humidity;BMP_temperature;BMP_pressure;BME280_temperature;BME280_humidity;BME280_pressure;Samples;Min_cycle;Max_cycle;Signal;HPM_P1;HPM_P2
2022/08/14 00:02:16;;;;;;;4.97;4.57;;;22.70;95.40;;;;;;6229648;28;89043;-66
2022/08/14 00:05:20;;;;;;;5.07;4.65;;;22.70;95.40;;;;;;6229157;28;89121;-66
2022/08/14 00:08:23;;;;;;;5.03;4.63;;;22.70;95.40;;;;;;6219047;28;88942;-66
2022/08/14 00:11:25;;;;;;;5.20;4.80;;;22.70;95.30;;;;;;6229493;28;89370;-67
2022/08/14 00:14:28;;;;;;;5.65;5.07;;;22.70;95.20;;;;;;6229107;28;89186;-66
2022/08/14 00:17:30;;;;;;;5.43;4.93;;;22.70;95.10;;;;;;6229981;28;89027;-66
2022/08/14 00:20:35;;;;;;;5.72;4.90;;;22.70;95.10;;;;;;6228654;28;89064;-66
2022/08/14 00:23:38;;;;;;;5.20;4.70;;;22.70;94.90;;;;;;6230548;28;89059;-66
2022/08/14 00:26:40;;;;;;;5.00;4.60;;;22.70;94.90;;;;;;6245535;28;89449;-66
2022/08/14 00:29:42;;;;;;;5.47;4.53;;;22.70;94.80;;;;;;6234391;28;88643;-66
2022/08/14 00:32:44;;;;;;;5.38;4.88;;;22.70;94.70;;;;;;6233737;28;89128;-66
2022/08/14 00:35:46;;;;;;;5.47;5.07;;;22.70;94.70;;;;;;6233374;28;89402;-66
2022/08/14 00:38:50;;;;;;;6.03;5.05;;;22.70;94.80;;;;;;6233210;28;90049;-66
2022/08/14 00:41:52;;;;;;;5.60;5.10;;;22.70;94.80;;;;;;6232710;28;89155;-66
2022/08/14 00:44:54;;;;;;;5.25;4.85;;;22.70;94.80;;;;;;6232611;28;89106;-66
2022/08/14 00:47:57;;;;;;;4.85;4.45;;;22.60;94.70;;;;;;6233900;28;89089;-66
2022/08/14 00:50:59;;;;;;;5.28;4.85;;;22.60;94.60;;;;;;6233679;28;89189;-66
2022/08/14 00:54:02;;;;;;;4.47;4.18;;;22.60;94.60;;;;;;6233603;28;88946;-66
2022/08/14 00:57:05;;;;;;;4.88;4.47;;;22.70;94.60;;;;;;6232459;28;89399;-66
2022/08/14 01:00:13;;;;;;;4.85;4.47;;;22.70;94.50;;;;;;6232762;28;88242;-66
2022/08/14 01:03:17;;;;;;;5.32;4.82;;;22.60;94.40;;;;;;6233263;28;89100;-66
2022/08/14 01:06:20;;;;;;;5.47;4.97;;;22.60;94.40;;;;;;6233512;28;89075;-66
2022/08/14 01:09:23;;;;;;;5.40;4.90;;;22.60;94.40;;;;;;6232047;28;90083;-66
2022/08/14 01:12:27;;;;;;;5.53;5.03;;;22.60;94.40;;;;;;6226437;28;89028;-66
2022/08/14 01:15:29;;;;;;;5.80;5.30;;;22.60;94.30;;;;;;6236113;28;88293;-66
2022/08/14 01:21:53;;;;;;;5.70;5.20;;;22.60;94.40;;;;;;6231013;28;87329;-66
2022/08/14 01:24:56;;;;;;;5.60;5.18;;;22.60;94.40;;;;;;6228354;28;89109;-66
2022/08/14 01:27:58;;;;;;;5.35;4.95;;;22.60;94.40;;;;;;6226196;28;88954;-66
2022/08/14 01:31:01;;;;;;;5.07;4.65;;;22.60;94.40;;;;;;6232004;28;88388;-66
2022/08/14 01:34:05;;;;;;;5.10;4.70;;;22.60;94.40;;;;;;6232521;28;89035;-66
2022/08/14 01:37:09;;;;;;;5.40;4.95;;;22.60;94.30;;;;;;6232032;28;87959;-66
2022/08/14 01:40:12;;;;;;;4.30;4.00;;;22.60;94.30;;;;;;6232487;28;90074;-66
2022/08/14 01:43:16;;;;;;;4.68;4.28;;;22.60;94.20;;;;;;6231928;28;89434;-66
2022/08/14 01:46:19;;;;;;;4.95;4.55;;;22.60;94.20;;;;;;6231625;28;88319;-66
2022/08/14 01:49:22;;;;;;;5.22;4.75;;;22.60;94.30;;;;;;6227367;28;89104;-66
2022/08/14 01:52:26;;;;;;;5.43;4.93;;;22.60;94.30;;;;;;6227316;28;89264;-66
2022/08/14 01:55:30;;;;;;;5.60;4.93;;;22.60;94.30;;;;;;6232868;28;89100;-66
2022/08/14 01:58:32;;;;;;;6.10;5.50;;;22.60;94.30;;;;;;6231305;28;88983;-66
2022/08/14 02:01:36;;;;;;;5.65;5.25;;;22.60;94.30;;;;;;6231854;28;88730;-66
2022/08/14 02:04:39;;;;;;;5.68;5.03;;;22.60;94.40;;;;;;6221076;28;88942;-66
2022/08/14 02:07:44;;;;;;;5.15;4.70;;;22.50;94.30;;;;;;6222824;28;89082;-66
2022/08/14 02:11:15;;;;;;;5.65;5.20;;;22.50;94.40;;;;;;6221914;28;91079;-66
2022/08/14 02:14:11;;;;;;;6.03;5.25;;;22.50;94.30;;;;;;6230626;28;87885;-66
2022/08/14 02:17:13;;;;;;;5.68;5.13;;;22.50;94.30;;;;;;6231778;28;87655;-66
2022/08/14 02:20:16;;;;;;;5.40;4.97;;;22.50;94.40;;;;;;6228706;28;88523;-67
2022/08/14 02:23:20;;;;;;;5.18;4.78;;;22.50;94.40;;;;;;6219065;28;87968;-66
2022/08/14 02:26:25;;;;;;;5.93;5.25;;;22.50;94.40;;;;;;6226406;28;89139;-67
2022/08/14 02:29:29;;;;;;;5.18;4.78;;;22.50;94.50;;;;;;6223937;28;89231;-66
2022/08/14 02:32:35;;;;;;;5.60;5.00;;;22.50;94.40;;;;;;6231554;28;88834;-66
2022/08/14 02:35:40;;;;;;;4.82;4.43;;;22.50;94.40;;;;;;6229518;28;89394;-66
2022/08/14 02:38:43;;;;;;;5.22;4.82;;;22.50;94.40;;;;;;6222854;28;89352;-66
2022/08/14 02:41:51;;;;;;;6.07;5.47;;;22.50;94.40;;;;;;6216518;28;90325;-66
2022/08/14 02:44:53;;;;;;;5.60;5.10;;;22.50;94.60;;;;;;6220184;28;89042;-67
2022/08/14 02:47:56;;;;;;;5.72;5.22;;;22.50;94.60;;;;;;6231395;28;89398;-66
2022/08/14 02:50:58;;;;;;;6.18;5.60;;;22.50;94.70;;;;;;6229465;28;89146;-66
2022/08/14 02:54:02;;;;;;;6.32;5.78;;;22.50;94.70;;;;;;6231353;28;89037;-66
2022/08/14 02:57:05;;;;;;;5.78;5.38;;;22.50;94.70;;;;;;6230972;28;89330;-66
2022/08/14 03:00:10;;;;;;;5.72;5.32;;;22.40;94.70;;;;;;6229609;28;89218;-66
2022/08/14 03:03:11;;;;;;;5.85;5.35;;;22.50;94.80;;;;;;6231060;28;87636;-66
2022/08/14 03:06:14;;;;;;;6.10;5.60;;;22.40;94.80;;;;;;6230099;28;89438;-66
2022/08/14 03:09:18;;;;;;;5.55;5.15;;;22.40;94.80;;;;;;6230537;28;89342;-66
2022/08/14 03:12:20;;;;;;;6.07;5.57;;;22.40;94.70;;;;;;6227907;28;90072;-66
2022/08/14 03:15:23;;;;;;;5.75;5.25;;;22.40;94.70;;;;;;6228507;28;89208;-66
2022/08/14 03:18:26;;;;;;;5.85;5.35;;;22.40;94.60;;;;;;6231185;28;89971;-66
2022/08/14 03:21:30;;;;;;;5.72;5.20;;;22.40;94.60;;;;;;6231808;28;89150;-66
2022/08/14 03:24:35;;;;;;;5.82;5.32;;;22.40;94.50;;;;;;6229673;28;89067;-66
2022/08/14 03:27:37;;;;;;;5.20;4.80;;;22.40;94.50;;;;;;6222370;28;89232;-66
2022/08/14 03:30:39;;;;;;;5.80;5.40;;;22.40;94.40;;;;;;6227350;28;89187;-66
2022/08/14 03:33:43;;;;;;;5.20;4.80;;;22.40;94.40;;;;;;6231243;28;88661;-66
2022/08/14 03:36:45;;;;;;;6.20;5.70;;;22.50;94.30;;;;;;6229845;28;89986;-66
2022/08/14 03:39:49;;;;;;;5.97;5.38;;;22.40;94.20;;;;;;6227044;28;89436;-66
2022/08/14 03:42:51;;;;;;;5.85;5.35;;;22.40;94.30;;;;;;6220007;28;90028;-66
2022/08/14 03:45:54;;;;;;;5.80;5.30;;;22.40;94.30;;;;;;6229819;28;89363;-66
2022/08/14 03:48:56;;;;;;;5.80;5.40;;;22.40;94.30;;;;;;6230330;28;89128;-66
2022/08/14 03:52:01;;;;;;;6.15;5.28;;;22.40;94.30;;;;;;6229748;28;89087;-66
2022/08/14 03:55:06;;;;;;;6.10;5.50;;;22.40;94.30;;;;;;6230329;28;89170;-66
2022/08/14 03:58:09;;;;;;;6.03;5.53;;;22.40;94.30;;;;;;6234371;28;89052;-66
2022/08/14 04:01:12;;;;;;;5.53;5.13;;;22.40;94.30;;;;;;6235425;28;89103;-66
2022/08/14 04:04:13;;;;;;;6.00;5.45;;;22.40;94.40;;;;;;6233546;28;87534;-66
2022/08/14 04:07:16;;;;;;;5.65;5.15;;;22.30;94.30;;;;;;6234358;28;89417;-66
2022/08/14 04:10:20;;;;;;;5.18;4.78;;;22.40;94.30;;;;;;6234418;28;89370;-66
2022/08/14 04:13:22;;;;;;;5.45;4.95;;;22.40;94.30;;;;;;6230016;28;91325;-66
2022/08/14 04:16:24;;;;;;;5.50;5.10;;;22.30;94.30;;;;;;6237470;28;89059;-66
2022/08/14 04:19:27;;;;;;;5.88;5.30;;;22.40;94.30;;;;;;6233963;28;89434;-66
2022/08/14 04:22:28;;;;;;;6.55;5.93;;;22.40;94.40;;;;;;6232603;28;88958;-66
2022/08/14 04:25:35;;;;;;;6.05;5.55;;;22.40;94.50;;;;;;6234933;28;89256;-66
2022/08/14 04:28:37;;;;;;;5.25;4.85;;;22.30;94.50;;;;;;6233625;28;89111;-66
2022/08/14 04:31:39;;;;;;;6.18;5.68;;;22.30;94.50;;;;;;6233010;28;88922;-66
2022/08/14 04:34:41;;;;;;;6.38;5.80;;;22.30;94.50;;;;;;6232734;28;89789;-66
2022/08/14 04:44:23;;;;;;;6.00;5.57;;;22.30;94.60;;;;;;6232752;28;88135;-65
2022/08/14 04:50:45;;;;;;;6.28;5.68;;;22.30;94.60;;;;;;6233026;28;87129;-66
2022/08/14 04:53:49;;;;;;;5.63;5.07;;;22.30;94.50;;;;;;6233001;28;88176;-66
2022/08/14 04:56:53;;;;;;;5.80;5.32;;;22.30;94.40;;;;;;6233524;28;89092;-66
2022/08/14 04:59:56;;;;;;;5.90;5.40;;;22.30;94.40;;;;;;6233354;28;89022;-66
2022/08/14 05:02:58;;;;;;;6.00;5.25;;;22.30;94.40;;;;;;6232542;28;89056;-66
2022/08/14 05:06:04;;;;;;;6.03;5.53;;;22.30;94.50;;;;;;6232652;28;88663;-66
2022/08/14 05:09:06;;;;;;;6.00;5.43;;;22.30;94.40;;;;;;6232665;28;89334;-66
2022/08/14 05:12:11;;;;;;;6.53;5.93;;;22.30;94.50;;;;;;6232809;28;87904;-66
2022/08/14 05:15:13;;;;;;;6.38;5.88;;;22.30;94.60;;;;;;6223656;28;89984;-65
2022/08/14 05:18:17;;;;;;;6.22;5.72;;;22.30;94.60;;;;;;6233383;28;87974;-66
2022/08/14 05:21:19;;;;;;;6.05;5.55;;;22.30;94.70;;;;;;6232411;28;89093;-66
2022/08/14 05:24:21;;;;;;;6.55;5.97;;;22.30;94.90;;;;;;6224559;28;89066;-66
2022/08/14 05:27:24;;;;;;;5.97;5.47;;;22.30;94.90;;;;;;6232851;28;89066;-66
2022/08/14 05:30:27;;;;;;;6.50;6.00;;;22.30;95.10;;;;;;6232113;28;89343;-67
2022/08/14 05:33:31;;;;;;;7.28;6.57;;;22.30;95.30;;;;;;6232100;28;89398;-66
2022/08/14 05:36:33;;;;;;;6.53;5.93;;;22.30;95.40;;;;;;6234472;28;88655;-65
2022/08/14 05:39:35;;;;;;;6.43;5.82;;;22.30;95.50;;;;;;6230736;28;90999;-66
2022/08/14 05:42:39;;;;;;;6.32;5.82;;;22.30;95.70;;;;;;6232776;28;89253;-66
2022/08/14 05:45:41;;;;;;;6.03;5.43;;;22.30;95.60;;;;;;6231068;28;90050;-66
2022/08/14 05:48:43;;;;;;;5.82;5.32;;;22.30;95.40;;;;;;6231712;28;89106;-66
2022/08/14 05:51:46;;;;;;;6.57;5.93;;;22.30;95.20;;;;;;6231565;28;89078;-66
2022/08/14 05:54:48;;;;;;;6.25;5.75;;;22.30;95.20;;;;;;6231436;28;89100;-66
2022/08/14 05:57:54;;;;;;;7.07;5.97;;;22.30;95.40;;;;;;6232349;28;89102;-66
2022/08/14 06:00:56;;;;;;;7.10;6.50;;;22.30;95.40;;;;;;6224620;28;89120;-66
2022/08/14 06:03:58;;;;;;;7.60;6.78;;;22.30;96.70;;;;;;6231579;28;89229;-67
2022/08/14 06:07:00;;;;;;;7.43;6.82;;;22.30;98.50;;;;;;6231271;28;88484;-66
2022/08/14 06:10:02;;;;;;;7.22;6.43;;;22.40;98.50;;;;;;6226599;28;89042;-66
2022/08/14 06:13:05;;;;;;;7.20;6.60;;;22.30;98.50;;;;;;6229687;28;87996;-66
2022/08/14 06:16:08;;;;;;;7.35;6.75;;;22.30;98.40;;;;;;6225910;28;90010;-66
2022/08/14 06:19:10;;;;;;;7.68;6.97;;;22.30;98.70;;;;;;6230367;28;89089;-65
2022/08/14 06:22:12;;;;;;;8.90;7.15;;;22.30;99.80;;;;;;6231280;28;89018;-66
2022/08/14 06:25:15;;;;;;;8.05;7.35;;;22.30;99.90;;;;;;6226399;28;89588;-64
2022/08/14 06:28:20;;;;;;;9.05;7.40;;;22.30;99.90;;;;;;6229756;28;89070;-65
2022/08/14 06:31:22;;;;;;;7.82;7.13;;;22.30;99.90;;;;;;6231170;28;89007;-67
2022/08/14 06:34:24;;;;;;;9.52;8.32;;;22.40;99.90;;;;;;6220524;28;88270;-66
2022/08/14 06:37:26;;;;;;;8.68;7.85;;;22.40;99.90;;;;;;6230313;28;88666;-65
2022/08/14 06:40:30;;;;;;;8.38;7.55;;;22.40;99.90;;;;;;6228537;28;89373;-64
2022/08/14 06:43:33;;;;;;;8.75;7.85;;;22.50;99.90;;;;;;6230214;28;89132;-64
2022/08/14 06:46:36;;;;;;;7.95;7.22;;;22.50;99.90;;;;;;6230076;28;88977;-64
2022/08/14 06:49:38;;;;;;;7.72;7.07;;;22.50;99.90;;;;;;6236850;28;89103;-64
2022/08/14 06:52:39;;;;;;;9.18;7.50;;;22.50;99.90;;;;;;6229717;28;89068;-65
2022/08/14 06:55:42;;;;;;;8.05;7.35;;;22.50;99.90;;;;;;6229673;28;89341;-65
2022/08/14 06:58:46;;;;;;;7.45;6.60;;;22.50;99.90;;;;;;6226869;28;89156;-65
2022/08/14 07:08:29;;;;;;;7.75;7.05;;;22.60;99.90;;;;;;6221355;28;86504;-64
2022/08/14 07:11:31;;;;;;;7.93;7.15;;;22.50;99.90;;;;;;6228581;28;89105;-64
2022/08/14 07:14:34;;;;;;;7.78;7.07;;;22.60;99.90;;;;;;6232275;28;89046;-64
2022/08/14 07:17:44;;;;;;;7.35;6.75;;;22.60;99.90;;;;;;6230309;28;89268;-64
2022/08/14 07:20:46;;;;;;;7.75;7.15;;;22.50;99.90;;;;;;6229171;28;88980;-64
2022/08/14 07:23:48;;;;;;;7.40;6.80;;;22.60;99.90;;;;;;6235845;28;89205;-64
2022/08/14 07:26:50;;;;;;;7.32;6.72;;;22.50;99.90;;;;;;6231473;28;88005;-65
2022/08/14 07:29:54;;;;;;;7.10;6.50;;;22.50;99.90;;;;;;6229679;28;89273;-64
2022/08/14 07:32:56;;;;;;;7.40;6.80;;;22.60;99.90;;;;;;6226468;28;89401;-65
2022/08/14 07:36:00;;;;;;;7.18;6.47;;;22.60;99.90;;;;;;6234537;28;87953;-65
2022/08/14 07:39:03;;;;;;;7.03;6.43;;;22.60;99.90;;;;;;6231045;28;88319;-65
2022/08/14 07:42:06;;;;;;;7.28;6.68;;;22.50;99.90;;;;;;6230645;28;88671;-65
2022/08/14 07:45:11;;;;;;;7.43;6.72;;;22.60;99.90;;;;;;6235151;28;88956;-65
2022/08/14 07:48:13;;;;;;;7.82;7.07;;;22.60;99.90;;;;;;6233277;28;90005;-65
2022/08/14 07:51:15;;;;;;;7.45;6.75;;;22.60;99.90;;;;;;6233433;28;87880;-66
2022/08/14 07:54:18;;;;;;;7.35;6.65;;;22.60;99.90;;;;;;6232242;28;89286;-66
2022/08/14 07:57:21;;;;;;;8.20;7.40;;;22.60;99.90;;;;;;6232582;28;89237;-66
2022/08/14 08:00:25;;;;;;;7.80;7.10;;;22.60;99.90;;;;;;6230078;28;89074;-66
2022/08/14 08:03:28;;;;;;;7.18;6.57;;;22.60;99.90;;;;;;6230442;28;89079;-65
2022/08/14 08:06:30;;;;;;;7.00;6.40;;;22.60;99.90;;;;;;6234920;28;89096;-66
2022/08/14 08:09:34;;;;;;;6.93;6.30;;;22.60;99.90;;;;;;6221828;28;88686;-65
2022/08/14 08:12:36;;;;;;;8.15;6.50;;;22.60;99.90;;;;;;6233068;28;89158;-65
2022/08/14 08:15:42;;;;;;;7.05;6.45;;;22.60;99.90;;;;;;6223886;28;89462;-65
2022/08/14 08:18:44;;;;;;;7.10;6.50;;;22.60;99.90;;;;;;6231719;28;89834;-65
2022/08/14 08:21:46;;;;;;;7.15;6.55;;;22.60;99.90;;;;;;6234271;28;89499;-65
2022/08/14 08:24:48;;;;;;;6.68;6.15;;;22.60;99.90;;;;;;6251270;28;89178;-65
2022/08/14 08:27:58;;;;;;;7.43;6.82;;;22.60;99.90;;;;;;6232600;28;89337;-65
2022/08/14 08:31:04;;;;;;;7.15;6.55;;;22.60;99.90;;;;;;6232435;28;89138;-64
2022/08/14 08:34:06;;;;;;;7.93;7.20;;;22.70;99.90;;;;;;6226138;28;89213;-65
2022/08/14 08:37:08;;;;;;;8.80;7.90;;;22.70;99.90;;;;;;6244731;28;88767;-65
2022/08/14 08:40:11;;;;;;;8.15;7.35;;;22.80;99.90;;;;;;6232554;28;89318;-65
2022/08/14 08:43:20;;;;;;;8.20;7.38;;;22.90;99.90;;;;;;6231212;28;89162;-65
2022/08/14 08:46:23;;;;;;;8.07;7.38;;;23.00;99.90;;;;;;6231329;28;89143;-66
2022/08/14 08:49:36;;;;;;;8.68;7.82;;;23.10;99.90;;;;;;6230605;28;89359;-65
2022/08/14 08:52:48;;;;;;;8.15;7.40;;;23.10;99.90;;;;;;6230558;28;89091;-66
2022/08/14 08:55:50;;;;;;;8.18;7.47;;;23.10;99.90;;;;;;6231213;28;89105;-66
2022/08/14 08:58:52;;;;;;;8.30;7.50;;;23.10;99.90;;;;;;6231368;28;89079;-66
2022/08/14 09:01:59;;;;;;;7.57;6.88;;;23.10;99.90;;;;;;6230936;28;89080;-66
2022/08/14 09:05:03;;;;;;;7.22;6.60;;;23.10;99.90;;;;;;6231925;28;87900;-65
2022/08/14 09:08:17;;;;;;;7.63;6.93;;;23.10;99.90;;;;;;6217524;28;87970;-65
2022/08/14 09:11:19;;;;;;;7.43;6.72;;;23.10;99.90;;;;;;6230011;28;88618;-65
2022/08/14 09:14:21;;;;;;;7.80;7.10;;;23.10;99.90;;;;;;6231644;28;89178;-66
2022/08/14 09:17:24;;;;;;;7.63;6.93;;;23.10;99.90;;;;;;6232357;28;87907;-65
2022/08/14 09:20:27;;;;;;;8.18;7.38;;;23.10;99.90;;;;;;6221651;28;90067;-66
2022/08/14 09:23:29;;;;;;;7.13;6.53;;;23.20;99.90;;;;;;6232893;28;89037;-65
2022/08/14 09:26:31;;;;;;;7.38;6.75;;;23.20;99.90;;;;;;6232485;28;89078;-65
2022/08/14 09:29:33;;;;;;;7.50;6.72;;;23.20;99.90;;;;;;6232009;28;88948;-65
2022/08/14 09:32:50;;;;;;;7.30;6.70;;;23.20;99.90;;;;;;6230757;28;88055;-66
2022/08/14 09:36:03;;;;;;;7.05;6.45;;;23.20;99.90;;;;;;6232315;28;89145;-65
2022/08/14 09:39:15;;;;;;;7.07;6.47;;;23.20;99.90;;;;;;6230348;28;89123;-65
2022/08/14 09:42:40;;;;;;;7.30;6.60;;;23.20;99.90;;;;;;6230790;28;88665;-66
2022/08/14 09:45:46;;;;;;;6.75;6.15;;;23.20;99.90;;;;;;6235787;28;89987;-65
2022/08/14 09:49:00;;;;;;;6.80;6.30;;;23.20;99.90;;;;;;6231084;28;89671;-65
2022/08/14 09:52:05;;;;;;;6.93;6.38;;;23.20;99.90;;;;;;6228829;28;90060;-65
2022/08/14 09:55:18;;;;;;;6.68;6.07;;;23.20;99.90;;;;;;6231485;28;88979;-66
2022/08/14 09:58:20;;;;;;;6.95;6.25;;;23.20;99.90;;;;;;6230886;28;87122;-65
2022/08/14 10:01:23;;;;;;;7.28;6.57;;;23.20;99.90;;;;;;6230231;28;89186;-66
2022/08/14 10:04:28;;;;;;;6.38;5.78;;;23.10;99.90;;;;;;6227713;28;89101;-66
2022/08/14 10:07:31;;;;;;;6.78;6.07;;;23.20;99.90;;;;;;6227473;28;89380;-66
2022/08/14 10:10:37;;;;;;;6.70;6.10;;;23.10;99.90;;;;;;6234044;28;89462;-66
2022/08/14 10:13:40;;;;;;;6.45;5.95;;;23.10;99.90;;;;;;6234826;28;88290;-66
2022/08/14 10:16:43;;;;;;;6.72;6.13;;;23.20;99.90;;;;;;6230897;28;89353;-66
2022/08/14 10:19:49;;;;;;;6.85;6.15;;;23.10;99.90;;;;;;6218288;28;89920;-66
2022/08/14 10:22:51;;;;;;;6.65;6.05;;;23.10;99.90;;;;;;6229589;28;90572;-66
2022/08/14 10:25:57;;;;;;;6.60;6.10;;;23.10;99.90;;;;;;6229072;28;89058;-66
2022/08/14 10:29:06;;;;;;;6.47;5.97;;;23.10;99.90;;;;;;6231038;28;87888;-65
2022/08/14 10:32:10;;;;;;;6.07;5.57;;;23.10;99.90;;;;;;6229732;28;89142;-66
2022/08/14 10:35:15;;;;;;;6.70;6.10;;;23.10;99.90;;;;;;6229487;28;89102;-66
2022/08/14 10:38:27;;;;;;;7.03;6.43;;;23.10;99.90;;;;;;6230653;28;89326;-65
2022/08/14 10:41:39;;;;;;;6.95;6.35;;;23.10;99.90;;;;;;6230654;28;89116;-66
2022/08/14 10:44:44;;;;;;;6.13;5.63;;;23.10;99.90;;;;;;6230553;28;88274;-65
2022/08/14 10:47:48;;;;;;;6.43;5.93;;;23.10;99.90;;;;;;6219918;28;88582;-66
2022/08/14 10:50:52;;;;;;;6.18;5.68;;;23.10;99.90;;;;;;6228760;28;89102;-66
2022/08/14 10:53:55;;;;;;;6.30;5.80;;;23.00;99.90;;;;;;6228710;28;89074;-66
2022/08/14 10:56:57;;;;;;;6.20;5.60;;;23.10;99.90;;;;;;6229565;28;89145;-65
2022/08/14 11:00:01;;;;;;;6.15;5.63;;;23.10;99.90;;;;;;6230138;28;89138;-66
2022/08/14 11:03:06;;;;;;;6.15;5.65;;;23.10;99.90;;;;;;6229639;28;89361;-65
2022/08/14 11:06:18;;;;;;;5.95;5.45;;;23.00;99.90;;;;;;6229497;28;88791;-65
2022/08/14 11:09:20;;;;;;;6.35;5.78;;;23.00;99.90;;;;;;6224389;28;89006;-66
2022/08/14 11:12:24;;;;;;;6.20;5.70;;;23.20;99.90;;;;;;6231124;28;87929;-66
2022/08/14 11:15:27;;;;;;;6.00;5.50;;;23.00;99.90;;;;;;6231534;28;88351;-66
2022/08/14 11:18:31;;;;;;;6.47;5.97;;;23.00;99.90;;;;;;6239887;28;89011;-66
2022/08/14 11:21:39;;;;;;;5.63;5.22;;;23.00;99.90;;;;;;6228585;28;89129;-66
2022/08/14 11:24:44;;;;;;;6.00;5.50;;;23.00;99.90;;;;;;6227087;28;89937;-66
2022/08/14 11:27:47;;;;;;;6.53;5.93;;;23.00;99.90;;;;;;6229011;28;89056;-66
2022/08/14 11:30:50;;;;;;;6.13;5.63;;;23.00;99.90;;;;;;6233544;28;89064;-66
2022/08/14 11:33:56;;;;;;;6.10;5.60;;;23.00;99.90;;;;;;6240482;28;89038;-66
2022/08/14 11:37:08;;;;;;;6.40;5.90;;;23.00;99.90;;;;;;6237836;28;88878;-66
2022/08/14 11:40:16;;;;;;;6.50;5.90;;;23.00;99.90;;;;;;6228861;28;89121;-66
2022/08/14 11:43:18;;;;;;;6.40;5.80;;;23.00;99.90;;;;;;6227926;28;89015;-66
2022/08/14 11:46:22;;;;;;;6.03;5.55;;;23.00;99.90;;;;;;6219285;28;88407;-66
2022/08/14 11:49:26;;;;;;;5.95;5.45;;;23.00;99.90;;;;;;6229785;28;88926;-66
2022/08/14 11:52:37;;;;;;;5.95;5.35;;;23.00;99.90;;;;;;6237240;28;89024;-66
2022/08/14 11:55:39;;;;;;;6.05;5.55;;;23.00;99.90;;;;;;6231432;28;89843;-66
2022/08/14 11:58:42;;;;;;;5.32;4.93;;;23.00;99.90;;;;;;6228864;28;89092;-66
2022/08/14 12:01:45;;;;;;;6.40;5.90;;;23.00;99.90;;;;;;6227816;28;90083;-66
2022/08/14 12:04:51;;;;;;;6.30;5.72;;;23.00;99.90;;;;;;6228481;28;89026;-66
2022/08/14 12:07:54;;;;;;;5.63;5.18;;;23.00;99.90;;;;;;6223412;28;89096;-66
2022/08/14 12:10:57;;;;;;;5.63;5.22;;;23.00;99.90;;;;;;6229667;28;88979;-66
2022/08/14 12:14:07;;;;;;;5.93;5.40;;;23.00;99.90;;;;;;6229016;28;91247;-66
2022/08/14 12:17:09;;;;;;;6.22;5.63;;;23.00;99.90;;;;;;6244285;28;88368;-66
2022/08/14 12:20:12;;;;;;;5.88;5.38;;;23.00;99.90;;;;;;6231242;27;89289;-66
2022/08/14 12:23:22;;;;;;;5.93;5.43;;;23.00;99.90;;;;;;6234315;28;89052;-66
2022/08/14 12:26:24;;;;;;;5.60;5.10;;;23.00;99.90;;;;;;6232091;28;90109;-66
2022/08/14 12:29:27;;;;;;;5.88;5.38;;;23.00;99.90;;;;;;6232380;28;89285;-65
2022/08/14 12:32:39;;;;;;;5.78;5.28;;;23.00;99.90;;;;;;6232593;28;88357;-66
2022/08/14 12:35:42;;;;;;;5.93;5.43;;;23.00;99.90;;;;;;6234362;28;88325;-66
2022/08/14 12:38:47;;;;;;;6.15;5.65;;;23.00;99.90;;;;;;6232318;28;89098;-65
2022/08/14 12:41:51;;;;;;;6.00;5.47;;;23.00;99.90;;;;;;6232907;28;89058;-66
2022/08/14 12:44:57;;;;;;;6.00;5.50;;;23.00;99.90;;;;;;6232317;28;89112;-66
2022/08/14 12:48:01;;;;;;;5.72;5.20;;;23.00;99.90;;;;;;6232748;28;88386;-66
2022/08/14 12:51:03;;;;;;;5.07;4.68;;;23.00;99.90;;;;;;6232942;28;88998;-66
2022/08/14 12:54:15;;;;;;;5.40;5.00;;;23.00;99.90;;;;;;6232938;28;88688;-66
2022/08/14 12:57:17;;;;;;;5.55;5.15;;;23.00;99.90;;;;;;6232932;28;89824;-66
2022/08/14 13:00:22;;;;;;;5.90;5.40;;;23.00;99.90;;;;;;6231600;28;89157;-66
2022/08/14 13:03:25;;;;;;;6.18;5.68;;;23.00;99.90;;;;;;6233519;28;89113;-66
2022/08/14 13:06:27;;;;;;;5.80;5.30;;;23.00;99.90;;;;;;6231442;28;88946;-66
2022/08/14 13:09:31;;;;;;;5.80;5.30;;;23.00;99.90;;;;;;6228769;28;88770;-66
2022/08/14 13:12:33;;;;;;;5.53;5.13;;;23.00;99.90;;;;;;6231431;28;90686;-66
2022/08/14 13:15:37;;;;;;;5.90;5.40;;;23.00;99.90;;;;;;6231737;28;89140;-66
2022/08/14 13:18:41;;;;;;;5.32;4.93;;;23.00;99.90;;;;;;6231777;28;88138;-65
2022/08/14 13:21:44;;;;;;;5.90;5.40;;;23.00;99.90;;;;;;6231277;28;89049;-65
2022/08/14 13:24:49;;;;;;;5.72;5.22;;;23.00;99.80;;;;;;6233005;28;89241;-65
2022/08/14 13:27:54;;;;;;;5.47;5.07;;;23.00;99.90;;;;;;6230856;28;89822;-65
2022/08/14 13:31:03;;;;;;;5.65;5.15;;;23.00;99.90;;;;;;6231830;28;89037;-65
2022/08/14 13:34:06;;;;;;;5.40;5.00;;;23.00;99.90;;;;;;6231241;28;88944;-65
2022/08/14 13:37:08;;;;;;;5.40;5.00;;;23.00;99.90;;;;;;6231430;28;89507;-65
2022/08/14 13:40:13;;;;;;;5.57;5.18;;;23.00;99.90;;;;;;6231681;28;89011;-65
2022/08/14 13:43:17;;;;;;;6.20;5.63;;;23.00;99.90;;;;;;6232240;28;89641;-65
2022/08/14 13:46:19;;;;;;;5.85;5.35;;;23.00;99.90;;;;;;6231618;28;89180;-65
2022/08/14 13:49:21;;;;;;;6.10;5.57;;;23.00;99.80;;;;;;6232027;28;88296;-65
2022/08/14 13:52:24;;;;;;;5.30;4.90;;;23.00;99.90;;;;;;6244684;28;88026;-65
2022/08/14 13:55:30;;;;;;;6.03;5.53;;;23.00;99.90;;;;;;6218657;28;89661;-65
2022/08/14 13:58:36;;;;;;;5.82;5.38;;;23.00;99.90;;;;;;6253141;28;90341;-65
2022/08/14 14:01:40;;;;;;;5.68;5.18;;;23.00;99.90;;;;;;6232795;28;89149;-65
2022/08/14 14:04:44;;;;;;;5.38;4.97;;;23.00;99.90;;;;;;6230702;28;87964;-65
2022/08/14 14:07:48;;;;;;;5.50;5.10;;;23.00;99.80;;;;;;6226786;28;89634;-66
2022/08/14 14:10:53;;;;;;;5.95;5.45;;;23.00;99.80;;;;;;6214577;28;89068;-65
2022/08/14 14:13:58;;;;;;;6.20;5.63;;;23.00;99.80;;;;;;6239601;27;89397;-66
2022/08/14 14:17:00;;;;;;;6.80;6.07;;;23.00;99.90;;;;;;6229927;28;89510;-65
2022/08/14 14:20:04;;;;;;;6.05;5.50;;;23.00;99.90;;;;;;6219859;28;88878;-66
2022/08/14 14:23:09;;;;;;;5.70;5.20;;;23.00;99.90;;;;;;6228831;28;89140;-65
2022/08/14 14:26:15;;;;;;;6.03;5.53;;;23.00;99.90;;;;;;6237515;28;89756;-66
2022/08/14 14:29:18;;;;;;;5.50;5.10;;;23.00;99.90;;;;;;6233509;28;89816;-65
2022/08/14 14:32:26;;;;;;;5.78;5.28;;;23.00;99.90;;;;;;6230992;28;89240;-66
2022/08/14 14:35:28;;;;;;;5.68;5.28;;;23.00;99.90;;;;;;6235554;28;89175;-65
2022/08/14 14:38:33;;;;;;;5.93;5.43;;;23.00;99.80;;;;;;6238518;28;89069;-66
2022/08/14 14:41:40;;;;;;;6.07;5.55;;;23.00;99.80;;;;;;6229714;28;89039;-66
2022/08/14 14:44:44;;;;;;;5.97;5.47;;;23.00;99.90;;;;;;6207311;28;87837;-65
2022/08/14 14:47:49;;;;;;;5.60;5.20;;;23.00;99.80;;;;;;6231783;28;89275;-65
2022/08/14 14:50:51;;;;;;;5.75;5.30;;;23.00;99.80;;;;;;6229420;28;88312;-66
2022/08/14 14:53:54;;;;;;;5.60;5.13;;;23.00;99.80;;;;;;6239697;28;89122;-66
2022/08/14 14:56:58;;;;;;;5.45;5.05;;;23.00;99.80;;;;;;6228314;28;89273;-65
2022/08/14 15:00:00;;;;;;;5.93;5.43;;;23.00;99.70;;;;;;6227600;28;90136;-66
2022/08/14 15:03:03;;;;;;;5.63;5.13;;;23.00;99.70;;;;;;6228791;28;87995;-65
2022/08/14 15:06:05;;;;;;;5.85;5.30;;;23.00;99.60;;;;;;6230478;28;89134;-66
2022/08/14 15:09:08;;;;;;;5.53;5.03;;;23.00;99.70;;;;;;6216468;28;89147;-66
2022/08/14 15:12:12;;;;;;;5.90;5.40;;;23.00;99.70;;;;;;6228205;28;89541;-66
2022/08/14 15:15:14;;;;;;;5.72;5.22;;;23.00;99.80;;;;;;6229375;28;89179;-65
2022/08/14 15:18:19;;;;;;;5.45;5.05;;;23.00;99.80;;;;;;6229907;28;87045;-65
2022/08/14 15:21:21;;;;;;;5.47;5.05;;;23.00;99.70;;;;;;6229370;28;88848;-66
2022/08/14 15:24:23;;;;;;;5.55;5.15;;;23.00;99.70;;;;;;6231789;28;88906;-66
2022/08/14 15:27:28;;;;;;;5.63;5.10;;;23.00;99.90;;;;;;6229077;28;89417;-66
2022/08/14 15:30:30;;;;;;;5.97;5.38;;;23.00;99.90;;;;;;6227627;28;90374;-65
2022/08/14 15:36:51;;;;;;;5.55;5.15;;;23.00;99.80;;;;;;6229410;28;87319;-65
2022/08/14 15:39:53;;;;;;;6.30;5.70;;;23.00;99.80;;;;;;6228819;28;89361;-65
2022/08/14 15:42:56;;;;;;;6.22;5.65;;;23.00;99.90;;;;;;6228522;28;89566;-66
2022/08/14 15:45:58;;;;;;;5.68;5.20;;;23.10;99.90;;;;;;6227338;28;89120;-66
2022/08/14 15:49:01;;;;;;;5.88;5.32;;;23.00;99.90;;;;;;6229546;28;89403;-65
2022/08/14 15:52:03;;;;;;;6.35;4.93;;;23.00;99.90;;;;;;6229433;28;88336;-66
2022/08/14 15:55:08;;;;;;;7.03;5.32;;;23.00;99.90;;;;;;6229186;28;89450;-66
2022/08/14 15:58:11;;;;;;;9.00;6.18;;;23.10;99.90;;;;;;6232933;28;88127;-66
2022/08/14 16:01:23;;;;;;;8.95;6.35;;;23.10;99.90;;;;;;6234309;28;90009;-65
2022/08/14 16:04:26;;;;;;;8.05;5.90;;;23.10;99.90;;;;;;6231293;28;89799;-65
2022/08/14 16:07:28;;;;;;;6.45;5.32;;;23.50;99.80;;;;;;6232377;28;89102;-65
2022/08/14 16:10:30;;;;;;;7.43;5.65;;;23.90;97.80;;;;;;6232683;28;89265;-65
2022/08/14 16:13:37;;;;;;;5.85;5.07;;;24.20;96.40;;;;;;6232902;28;89331;-66
2022/08/14 16:16:40;;;;;;;7.22;5.32;;;24.30;95.60;;;;;;6237887;28;89369;-65
2022/08/14 16:19:46;;;;;;;8.05;5.78;;;24.40;95.30;;;;;;6233096;28;89162;-66
2022/08/14 16:22:48;;;;;;;7.50;5.10;;;24.40;95.20;;;;;;6234551;28;88651;-65